Catàleg de serveis del Meteocat
Campanya meteocatpedra

Dades de l'estació automàtica Alfarràs

?
?
Resum diari 21:30 TU
Dades diàries de l'estació meteorològica
Temperatura mitjana 8.1 °C
Temperatura màxima 14.6 °C 14:13 TU
Temperatura mínima 4.0 °C 3:08 TU
Humitat relativa mitjana 81%
Precipitació acumulada 0.0 mm
Ratxa màxima del vent (2 m) 17.6 km/h - 252º 17:23 TU

El tram horari està expressat en Temps Universal (TU). Cal sumar una hora en horari d'hivern i dues en horari d'estiu per passar a l'hora oficial.

Alfarràs

Metadades estació meteorol´gica
Municipi Alfarràs
Comarca Segrià
Altitud 268 m
Data alta 17.09.1997
Estat actual Operativa
Dades de període
Període
TU
TM
°C
TX
°C
TN
°C
HRM
%
PPT
mm
VVM (2 m)
km/h
DVM (2 m)
graus
VVX (2 m)
km/h
00:00 - 00:30 4.7 5.2 4.3 93 0.0 1.8 354 5.0
00:30 - 01:00 4.4 4.5 4.2 94 0.0 2.9 314 7.9
01:00 - 01:30 4.3 4.5 4.1 93 0.0 3.2 319 9.4
01:30 - 02:00 4.5 4.5 4.3 92 0.0 5.4 318 10.1
02:00 - 02:30 4.3 4.4 4.2 92 0.0 4.7 312 9.7
02:30 - 03:00 4.4 4.5 4.2 92 0.0 2.2 313 5.8
03:00 - 03:30 4.3 4.6 4.0 94 0.0 0.7 294 3.2
03:30 - 04:00 4.4 4.7 4.2 94 0.0 1.4 150 4.7
04:00 - 04:30 4.2 4.3 4.2 97 0.0 0.4 122 2.2
04:30 - 05:00 4.4 4.6 4.3 97 0.0 0.0 206 1.4
05:00 - 05:30 4.6 4.7 4.6 96 0.0 0.4 174 2.5
05:30 - 06:00 4.7 4.9 4.6 97 0.0 0.4 29 2.2
06:00 - 06:30 5.0 5.2 4.9 96 0.0 1.4 326 3.2
06:30 - 07:00 5.3 5.4 5.2 94 0.0 3.6 328 7.6
07:00 - 07:30 5.5 5.6 5.4 94 0.0 1.4 309 4.0
07:30 - 08:00 6.0 6.6 5.6 95 0.0 1.8 322 6.5
08:00 - 08:30 6.6 6.8 6.5 93 0.0 1.1 295 6.5
08:30 - 09:00 7.1 7.4 6.8 92 0.0 1.1 328 3.6
09:00 - 09:30 7.4 7.6 7.4 89 0.0 1.8 358 4.3
09:30 - 10:00 8.1 8.7 7.6 87 0.0 2.5 259 5.0
10:00 - 10:30 9.5 9.8 8.7 76 0.0 1.8 284 5.0
10:30 - 11:00 10.1 10.6 9.7 78 0.0 4.7 258 9.7
11:00 - 11:30 11.0 11.5 10.5 75 0.0 4.0 263 10.1
11:30 - 12:00 11.9 12.4 11.4 73 0.0 4.0 240 10.8
12:00 - 12:30 12.0 12.7 11.5 72 0.0 5.0 246 13.7
12:30 - 13:00 12.9 13.3 12.3 69 0.0 4.7 218 11.9
13:00 - 13:30 13.2 13.7 12.6 66 0.0 4.3 222 11.9
13:30 - 14:00 13.4 14.0 13.1 65 0.0 4.0 210 13.3
14:00 - 14:30 14.1 14.6 13.4 60 0.0 2.9 226 9.4
14:30 - 15:00 13.4 13.8 13.2 64 0.0 4.3 261 12.2
15:00 - 15:30 13.2 13.7 13.0 69 0.0 2.5 290 6.8
15:30 - 16:00 13.3 13.7 12.8 71 0.0 0.4 125 2.2
16:00 - 16:30 11.3 13.0 9.8 80 0.0 1.8 254 9.7
16:30 - 17:00 9.4 10.2 8.6 85 0.0 2.2 180 7.6
17:00 - 17:30 10.5 11.1 9.2 62 0.0 6.5 248 17.6
17:30 - 18:00 10.7 10.9 10.0 60 0.0 5.4 241 16.2
18:00 - 18:30 9.6 10.0 9.2 64 0.0 3.6 265 10.1
18:30 - 19:00 9.3 9.6 9.0 65 0.0 6.1 252 12.6
19:00 - 19:30 8.6 9.2 7.8 67 0.0 3.6 268 13.3
19:30 - 20:00 7.8 8.4 7.4 68 0.0 3.6 321 10.4
20:00 - 20:30 7.6 8.2 6.6 69 0.0 1.8 259 6.8
20:30 - 21:00 5.9 7.3 5.2 78 0.0 1.8 77 5.4
21:00 - 21:30 6.6 7.6 5.5 75 0.0 1.1 176 4.3
21:30 - 22:00 5.3 5.8 4.9 85 0.0 1.1 350 3.2

Les dades en taronja només han passat un control de qualitat automàtic. Resta pendent la seva validació definitiva.